Time;durP1;ratioP1;P1;durP2;ratioP2;P2;SDS_P1;SDS_P2;PMS_P1;PMS_P2;Temp;Humidity;BMP_temperature;BMP_pressure;BME280_temperature;BME280_humidity;BME280_pressure;Samples;Min_cycle;Max_cycle;Signal;HPM_P1;HPM_P2
2023/03/26 00:00:08;;;;;;;1.23;0.30;;;8.50;99.90;;;;;;5096946;28;20733;-58
2023/03/26 00:02:38;;;;;;;0.68;0.30;;;8.50;97.20;;;;;;5096363;28;20459;-58
2023/03/26 00:05:07;;;;;;;1.30;0.40;;;8.50;93.80;;;;;;5103789;28;20453;-57
2023/03/26 00:07:35;;;;;;;0.50;0.30;;;8.60;83.00;;;;;;5117301;28;20523;-58
2023/03/26 00:10:03;;;;;;;0.50;0.30;;;8.50;84.60;;;;;;5110821;28;20425;-57
2023/03/26 00:12:30;;;;;;;1.50;0.30;;;8.40;92.30;;;;;;5104732;28;20458;-57
2023/03/26 00:14:57;;;;;;;1.00;0.30;;;8.40;90.40;;;;;;5096815;28;20472;-55
2023/03/26 00:17:24;;;;;;;0.60;0.30;;;8.40;91.90;;;;;;5100250;28;20436;-57
2023/03/26 00:19:52;;;;;;;0.88;0.30;;;8.50;90.10;;;;;;5103978;28;20438;-57
2023/03/26 00:22:19;;;;;;;0.90;0.40;;;8.40;79.80;;;;;;5097039;28;20509;-58
2023/03/26 00:24:48;;;;;;;0.60;0.30;;;8.40;93.30;;;;;;5109171;28;20412;-57
2023/03/26 00:27:16;;;;;;;0.50;0.30;;;8.40;95.10;;;;;;5116224;28;20484;-56
2023/03/26 00:29:43;;;;;;;0.80;0.30;;;8.40;89.60;;;;;;5116167;28;20758;-56
2023/03/26 00:32:10;;;;;;;0.70;0.30;;;8.40;92.80;;;;;;5116832;28;20484;-55
2023/03/26 00:34:40;;;;;;;0.60;0.30;;;8.30;95.40;;;;;;5117326;28;20824;-56
2023/03/26 00:37:07;;;;;;;0.70;0.30;;;8.20;99.90;;;;;;5104688;28;20841;-56
2023/03/26 00:39:36;;;;;;;0.60;0.30;;;8.10;99.90;;;;;;5114215;28;20432;-54
2023/03/26 00:42:06;;;;;;;0.70;0.40;;;8.20;99.90;;;;;;5114160;28;20439;-57
2023/03/26 00:44:34;;;;;;;0.50;0.30;;;8.20;99.90;;;;;;5113549;28;20420;-57
2023/03/26 00:47:02;;;;;;;0.60;0.30;;;8.20;97.40;;;;;;5114389;28;20761;-58
2023/03/26 00:49:30;;;;;;;0.52;0.30;;;8.10;96.40;;;;;;5114341;28;20716;-59
2023/03/26 00:51:57;;;;;;;0.50;0.20;;;8.30;90.00;;;;;;5114019;28;20432;-57
2023/03/26 00:54:24;;;;;;;0.73;0.60;;;8.30;66.80;;;;;;5115266;28;20473;-57
2023/03/26 00:56:54;;;;;;;1.77;0.30;;;8.30;62.80;;;;;;5115529;28;20477;-57
2023/03/26 00:59:22;;;;;;;0.60;0.20;;;8.40;74.30;;;;;;5115816;28;20431;-56
2023/03/26 01:01:53;;;;;;;0.73;0.30;;;8.40;76.30;;;;;;5115493;28;20446;-56
2023/03/26 01:04:26;;;;;;;1.25;0.30;;;8.50;42.50;;;;;;5115260;28;20471;-55
2023/03/26 01:06:54;;;;;;;1.20;0.30;;;8.40;54.10;;;;;;5115406;28;20530;-56
2023/03/26 01:09:31;;;;;;;0.75;0.30;;;8.40;59.10;;;;;;5111965;28;20459;-58
2023/03/26 01:11:59;;;;;;;1.40;0.30;;;8.50;61.60;;;;;;5103370;28;20426;-56
2023/03/26 01:14:28;;;;;;;0.60;0.30;;;8.40;44.80;;;;;;5093725;28;20502;-58
2023/03/26 01:16:58;;;;;;;0.90;0.28;;;8.40;48.10;;;;;;5094818;28;20503;-56
2023/03/26 01:19:32;;;;;;;1.33;0.30;;;8.40;41.30;;;;;;5100565;28;20433;-56
2023/03/26 01:22:00;;;;;;;0.90;0.20;;;8.40;44.80;;;;;;5103199;28;20438;-57
2023/03/26 01:24:28;;;;;;;0.80;0.30;;;8.40;40.40;;;;;;5113237;28;20473;-56
2023/03/26 01:27:12;;;;;;;0.90;0.30;;;8.40;51.70;;;;;;5115654;28;20924;-54
2023/03/26 01:29:44;;;;;;;1.60;0.30;;;8.40;43.20;;;;;;5116035;28;20470;-54
2023/03/26 01:32:24;;;;;;;0.73;0.30;;;8.40;44.80;;;;;;5115918;28;20431;-57
2023/03/26 01:35:00;;;;;;;0.70;0.30;;;8.40;43.50;;;;;;5114318;28;20417;-55
2023/03/26 01:37:34;;;;;;;0.90;0.30;;;8.50;51.50;;;;;;5114689;28;21062;-56
2023/03/26 01:40:10;;;;;;;0.90;0.30;;;8.50;36.00;;;;;;5114472;28;20429;-56
2023/03/26 01:42:42;;;;;;;0.60;0.30;;;8.40;41.20;;;;;;5113094;28;20480;-55
2023/03/26 01:45:14;;;;;;;0.90;0.30;;;8.30;51.00;;;;;;5114089;28;20493;-53
2023/03/26 01:47:42;;;;;;;0.60;0.30;;;8.30;57.70;;;;;;5094515;28;20925;-57
2023/03/26 01:50:10;;;;;;;1.20;0.30;;;8.20;66.50;;;;;;5094712;28;20414;-56
2023/03/26 01:52:37;;;;;;;0.60;0.30;;;8.30;89.30;;;;;;5104284;28;20438;-56
2023/03/26 01:55:10;;;;;;;2.60;0.40;;;8.30;79.80;;;;;;5101927;28;20418;-57
2023/03/26 01:57:51;;;;;;;1.25;0.40;;;8.30;56.10;;;;;;5094922;28;20433;-57
2023/03/26 02:00:25;;;;;;;1.70;0.30;;;8.30;64.70;;;;;;5094663;28;20430;-57
2023/03/26 02:03:17;;;;;;;2.20;0.30;;;8.40;67.60;;;;;;5094611;28;20418;-57
2023/03/26 02:05:52;;;;;;;1.40;0.30;;;8.50;99.90;;;;;;5094213;28;20436;-56
2023/03/26 02:08:23;;;;;;;1.40;0.30;;;8.50;99.90;;;;;;5094541;28;20417;-58
2023/03/26 02:10:56;;;;;;;0.90;0.40;;;8.50;99.90;;;;;;5093581;28;20449;-57
2023/03/26 02:13:23;;;;;;;1.40;0.40;;;8.40;99.90;;;;;;5093159;28;20830;-58
2023/03/26 02:15:59;;;;;;;1.13;0.30;;;8.40;99.90;;;;;;5093718;28;20426;-55
2023/03/26 02:18:35;;;;;;;1.30;0.30;;;8.40;99.90;;;;;;5093662;28;20457;-57
2023/03/26 02:21:04;;;;;;;0.85;0.30;;;8.40;99.90;;;;;;5094192;28;20488;-58
2023/03/26 02:23:34;;;;;;;0.88;0.40;;;8.40;99.90;;;;;;5098963;28;20412;-58
2023/03/26 02:26:05;;;;;;;0.60;0.30;;;8.30;99.90;;;;;;5115212;28;20523;-55
2023/03/26 02:28:32;;;;;;;1.25;0.30;;;8.30;64.60;;;;;;5115345;28;20420;-53
2023/03/26 02:31:00;;;;;;;0.93;0.30;;;8.40;99.90;;;;;;5115216;28;20423;-55
2023/03/26 02:33:27;;;;;;;0.85;0.30;;;8.30;99.90;;;;;;5115670;28;20504;-56
2023/03/26 02:35:58;;;;;;;2.80;0.40;;;8.40;99.90;;;;;;5115358;28;20420;-57
2023/03/26 02:38:26;;;;;;;1.70;0.30;;;8.40;99.90;;;;;;5115537;28;20839;-56
2023/03/26 02:40:54;;;;;;;0.60;0.30;;;8.30;99.90;;;;;;5115671;28;20526;-57
2023/03/26 02:43:22;;;;;;;0.70;0.30;;;8.40;99.90;;;;;;5113396;28;20429;-56
2023/03/26 02:45:49;;;;;;;1.50;0.30;;;8.40;99.90;;;;;;5094795;28;20476;-57
2023/03/26 02:48:16;;;;;;;0.50;0.30;;;8.40;99.90;;;;;;5094701;28;20448;-56
2023/03/26 02:50:44;;;;;;;0.60;0.30;;;8.30;99.90;;;;;;5095132;28;20698;-58
2023/03/26 02:53:12;;;;;;;1.30;0.30;;;8.20;99.90;;;;;;5096065;28;20417;-57
2023/03/26 02:55:39;;;;;;;2.33;0.30;;;8.30;99.90;;;;;;5114951;28;20503;-57
2023/03/26 02:58:06;;;;;;;1.25;0.30;;;8.30;99.90;;;;;;5115143;28;20420;-58
2023/03/26 03:00:35;;;;;;;0.50;0.30;;;8.30;99.90;;;;;;5115445;28;20843;-55
2023/03/26 03:03:03;;;;;;;1.55;0.40;;;8.30;99.90;;;;;;5115294;28;20424;-58
2023/03/26 03:05:31;;;;;;;0.93;0.40;;;8.40;99.90;;;;;;5110227;28;20424;-58
2023/03/26 03:07:58;;;;;;;0.80;0.30;;;8.30;99.90;;;;;;5102569;28;20425;-57
2023/03/26 03:10:26;;;;;;;0.50;0.20;;;8.40;99.90;;;;;;5094479;28;20412;-57
2023/03/26 03:12:54;;;;;;;0.90;0.30;;;8.50;99.90;;;;;;5098473;28;20471;-57
2023/03/26 03:15:21;;;;;;;0.50;0.30;;;8.50;99.90;;;;;;5098289;28;20883;-56
2023/03/26 03:17:50;;;;;;;0.95;0.30;;;8.50;99.90;;;;;;5099008;28;20817;-58
2023/03/26 03:20:17;;;;;;;0.90;0.20;;;8.50;99.90;;;;;;5109005;28;20427;-58
2023/03/26 03:22:44;;;;;;;1.13;0.40;;;8.60;99.90;;;;;;5099734;28;20471;-58
2023/03/26 03:25:13;;;;;;;2.80;0.40;;;8.60;99.90;;;;;;5103653;28;20414;-58
2023/03/26 03:27:41;;;;;;;1.20;0.40;;;8.60;99.90;;;;;;5098678;28;20447;-57
2023/03/26 03:30:11;;;;;;;1.20;0.50;;;8.50;99.90;;;;;;5097799;28;20825;-59
2023/03/26 03:32:38;;;;;;;1.20;0.40;;;8.50;99.90;;;;;;5098707;28;20453;-59
2023/03/26 03:35:07;;;;;;;0.80;0.40;;;8.50;99.90;;;;;;5098654;28;20413;-57
2023/03/26 03:37:34;;;;;;;0.80;0.30;;;8.50;99.90;;;;;;5098774;28;20428;-56
2023/03/26 03:40:01;;;;;;;2.20;0.60;;;8.40;99.90;;;;;;5098418;28;20452;-57
2023/03/26 03:42:28;;;;;;;1.60;0.50;;;8.40;99.90;;;;;;5098809;28;20425;-54
2023/03/26 03:44:55;;;;;;;1.20;0.60;;;8.40;99.90;;;;;;5098295;28;20424;-58
2023/03/26 03:47:22;;;;;;;0.70;0.30;;;8.40;99.90;;;;;;5104040;28;20727;-57
2023/03/26 03:49:50;;;;;;;1.80;0.50;;;8.40;99.90;;;;;;5102560;28;20413;-57
2023/03/26 03:52:18;;;;;;;0.68;0.30;;;8.40;99.90;;;;;;5098781;28;20447;-54
2023/03/26 03:54:45;;;;;;;1.48;0.32;;;8.40;99.90;;;;;;5104883;28;20421;-57
2023/03/26 03:57:14;;;;;;;1.10;0.40;;;8.40;99.90;;;;;;5096205;28;20429;-57
2023/03/26 03:59:41;;;;;;;1.10;0.30;;;8.40;99.90;;;;;;5108890;28;20487;-57
2023/03/26 04:02:08;;;;;;;1.37;0.30;;;8.40;99.90;;;;;;5097670;28;20426;-56
2023/03/26 04:04:36;;;;;;;0.80;0.40;;;8.40;99.90;;;;;;5104126;28;20477;-57
2023/03/26 04:07:03;;;;;;;1.52;0.30;;;8.40;99.90;;;;;;5101523;28;20421;-57
2023/03/26 04:09:31;;;;;;;0.80;0.40;;;8.50;99.90;;;;;;5097005;28;20833;-58
2023/03/26 04:11:58;;;;;;;0.60;0.30;;;8.50;99.90;;;;;;5096632;28;20475;-58
2023/03/26 04:14:25;;;;;;;2.88;0.40;;;8.50;99.90;;;;;;5096725;28;20422;-59
2023/03/26 04:16:52;;;;;;;1.90;0.50;;;8.50;99.90;;;;;;5097063;28;20784;-57
2023/03/26 04:19:19;;;;;;;0.70;0.30;;;8.40;99.90;;;;;;5097288;28;20468;-57
2023/03/26 04:21:46;;;;;;;0.87;0.50;;;8.50;99.90;;;;;;5097241;28;21014;-56
2023/03/26 04:24:13;;;;;;;2.00;0.60;;;8.50;99.90;;;;;;5106417;28;20453;-60
2023/03/26 04:26:41;;;;;;;0.70;0.30;;;8.60;99.90;;;;;;5117738;28;20436;-57
2023/03/26 04:29:12;;;;;;;1.20;0.30;;;8.70;99.90;;;;;;5117706;28;20420;-57
2023/03/26 04:31:41;;;;;;;1.60;0.30;;;8.80;99.90;;;;;;5117790;28;20435;-57
2023/03/26 04:34:13;;;;;;;1.52;0.40;;;9.00;99.90;;;;;;5115903;28;20822;-58
2023/03/26 04:36:41;;;;;;;1.20;0.70;;;9.10;99.90;;;;;;5115924;28;20947;-56
2023/03/26 04:39:12;;;;;;;1.00;0.40;;;9.00;99.90;;;;;;5116567;28;20419;-58
2023/03/26 04:41:39;;;;;;;1.33;0.30;;;9.00;99.90;;;;;;5116242;28;20432;-57
2023/03/26 04:44:07;;;;;;;1.00;0.30;;;9.30;99.90;;;;;;5101205;28;20787;-56
2023/03/26 04:46:35;;;;;;;1.58;0.38;;;9.20;99.90;;;;;;5105624;28;20442;-58
2023/03/26 04:49:02;;;;;;;1.20;0.30;;;9.20;99.90;;;;;;5115453;28;20778;-59
2023/03/26 04:51:37;;;;;;;0.82;0.30;;;9.20;99.90;;;;;;5115596;28;20481;-58
2023/03/26 04:54:06;;;;;;;2.60;0.30;;;9.30;99.90;;;;;;5115878;28;20417;-58
2023/03/26 04:56:42;;;;;;;0.80;0.50;;;9.30;99.90;;;;;;5116584;28;20447;-56
2023/03/26 04:59:13;;;;;;;2.40;0.32;;;9.10;99.90;;;;;;5115543;28;20423;-56
2023/03/26 05:01:41;;;;;;;2.30;0.40;;;9.10;99.90;;;;;;5116888;28;20468;-60
2023/03/26 05:04:08;;;;;;;1.20;0.40;;;9.00;99.90;;;;;;5117212;28;20465;-59
2023/03/26 05:06:36;;;;;;;1.52;0.40;;;9.10;99.90;;;;;;5117395;28;20432;-57
2023/03/26 05:09:04;;;;;;;1.60;0.30;;;9.10;99.90;;;;;;5117243;28;20511;-57
2023/03/26 05:11:31;;;;;;;1.63;0.40;;;8.90;99.90;;;;;;5117005;28;20477;-57
2023/03/26 05:13:58;;;;;;;1.20;0.30;;;8.90;99.90;;;;;;5109996;28;20422;-58
2023/03/26 05:16:28;;;;;;;0.88;0.40;;;8.90;99.90;;;;;;5110188;28;20420;-60
2023/03/26 05:18:55;;;;;;;2.08;0.80;;;9.10;99.90;;;;;;5095571;28;20902;-58
2023/03/26 05:21:22;;;;;;;1.10;0.40;;;9.10;99.90;;;;;;5096298;28;20441;-59
2023/03/26 05:23:49;;;;;;;1.20;0.30;;;9.10;99.90;;;;;;5102398;28;20423;-58
2023/03/26 05:26:16;;;;;;;1.60;0.30;;;9.10;99.90;;;;;;5116121;28;20436;-57
2023/03/26 05:28:43;;;;;;;0.70;0.30;;;9.10;99.90;;;;;;5096070;28;20818;-57
2023/03/26 05:31:10;;;;;;;1.60;0.40;;;9.20;99.90;;;;;;5096372;28;20425;-58
2023/03/26 05:33:39;;;;;;;0.82;0.40;;;9.20;99.90;;;;;;5096259;28;20506;-58
2023/03/26 05:36:11;;;;;;;1.13;0.35;;;9.10;99.90;;;;;;5096577;28;20429;-57
2023/03/26 05:38:39;;;;;;;2.08;0.40;;;9.10;99.90;;;;;;5096294;28;20649;-58
2023/03/26 05:41:08;;;;;;;0.98;0.30;;;9.10;99.90;;;;;;5096520;28;20440;-56
2023/03/26 05:43:35;;;;;;;1.00;0.30;;;9.20;99.90;;;;;;5096031;28;20414;-59
2023/03/26 05:46:03;;;;;;;2.10;0.30;;;9.30;99.90;;;;;;5095105;28;20921;-59
2023/03/26 05:48:30;;;;;;;0.93;0.30;;;9.30;99.90;;;;;;5095207;28;20497;-58
2023/03/26 05:50:59;;;;;;;0.60;0.30;;;9.40;99.90;;;;;;5093858;28;20487;-58
2023/03/26 05:53:27;;;;;;;0.88;0.30;;;9.30;99.90;;;;;;5097046;28;20831;-58
2023/03/26 05:55:56;;;;;;;0.90;0.30;;;9.30;99.90;;;;;;5114133;28;20633;-58
2023/03/26 05:58:24;;;;;;;1.52;0.40;;;9.20;99.90;;;;;;5114149;28;20423;-59
2023/03/26 06:00:58;;;;;;;0.90;0.40;;;9.10;99.90;;;;;;5113968;28;20471;-58
2023/03/26 06:03:25;;;;;;;1.25;0.50;;;9.00;99.90;;;;;;5105740;28;20418;-56
2023/03/26 06:05:52;;;;;;;2.45;0.30;;;9.00;99.90;;;;;;5097855;28;20497;-60
2023/03/26 06:08:21;;;;;;;1.50;0.40;;;9.10;99.90;;;;;;5106635;28;20420;-58
2023/03/26 06:10:49;;;;;;;1.40;0.33;;;9.20;99.90;;;;;;5115805;28;20420;-58
2023/03/26 06:13:16;;;;;;;0.68;0.30;;;9.40;99.90;;;;;;5116220;28;20417;-56
2023/03/26 06:15:43;;;;;;;0.60;0.30;;;9.50;99.90;;;;;;5115881;28;20481;-59
2023/03/26 06:18:10;;;;;;;1.17;0.30;;;9.50;99.90;;;;;;5114979;28;20821;-59
2023/03/26 06:20:37;;;;;;;1.27;0.43;;;9.50;99.90;;;;;;5108782;28;20487;-57
2023/03/26 06:23:04;;;;;;;1.70;0.40;;;9.50;99.90;;;;;;5102690;28;20483;-57
2023/03/26 06:25:32;;;;;;;1.63;0.80;;;9.50;99.90;;;;;;5115342;28;20473;-58
2023/03/26 06:27:59;;;;;;;0.57;0.30;;;9.40;99.90;;;;;;5115792;28;20419;-58
2023/03/26 06:30:26;;;;;;;0.95;0.30;;;9.30;99.90;;;;;;5108128;28;20473;-58
2023/03/26 06:32:53;;;;;;;0.90;0.30;;;9.30;99.90;;;;;;5096611;28;20414;-57
2023/03/26 06:35:20;;;;;;;1.30;0.30;;;9.30;99.90;;;;;;5094890;28;20414;-56
2023/03/26 06:37:47;;;;;;;1.60;0.30;;;9.20;99.90;;;;;;5094591;28;20421;-58
2023/03/26 06:40:14;;;;;;;2.40;0.30;;;9.10;99.90;;;;;;5092083;28;20413;-58
2023/03/26 06:42:43;;;;;;;1.10;0.30;;;9.10;99.90;;;;;;5094095;28;20502;-56
2023/03/26 06:45:10;;;;;;;0.93;0.30;;;9.10;99.90;;;;;;5093407;28;20890;-57
2023/03/26 06:47:37;;;;;;;1.88;0.30;;;9.20;99.90;;;;;;5093419;28;20441;-55
2023/03/26 06:50:05;;;;;;;0.60;0.30;;;9.20;99.90;;;;;;5094784;28;20471;-55
2023/03/26 06:52:32;;;;;;;1.30;0.32;;;9.30;99.90;;;;;;5094392;28;20485;-56
2023/03/26 06:54:59;;;;;;;1.30;0.40;;;9.20;99.90;;;;;;5111197;28;20420;-59
2023/03/26 06:57:26;;;;;;;0.85;0.30;;;9.20;99.90;;;;;;5115614;28;20435;-59
2023/03/26 06:59:55;;;;;;;2.13;0.30;;;9.30;99.90;;;;;;5114381;28;20412;-55
2023/03/26 07:02:22;;;;;;;1.20;0.40;;;9.20;99.90;;;;;;5114383;28;21075;-55
2023/03/26 07:04:48;;;;;;;1.17;0.30;;;9.20;99.90;;;;;;5114530;28;20416;-59
2023/03/26 07:07:17;;;;;;;0.98;0.30;;;9.30;99.90;;;;;;5114117;28;20544;-59
2023/03/26 07:09:44;;;;;;;1.13;0.30;;;9.40;99.90;;;;;;5115284;28;20519;-56
2023/03/26 07:12:11;;;;;;;1.30;0.30;;;9.30;99.90;;;;;;5113576;28;20518;-57
2023/03/26 07:14:37;;;;;;;1.23;0.30;;;9.20;99.90;;;;;;5114297;28;20643;-57
2023/03/26 07:17:06;;;;;;;0.77;0.30;;;9.20;99.90;;;;;;5115271;28;20424;-57
2023/03/26 07:19:33;;;;;;;1.10;0.40;;;9.20;99.90;;;;;;5115074;28;20524;-55
2023/03/26 07:22:00;;;;;;;1.80;0.35;;;9.10;99.90;;;;;;5114842;28;20432;-55
2023/03/26 07:24:28;;;;;;;1.30;0.45;;;9.10;99.90;;;;;;5113894;28;20711;-56
2023/03/26 07:27:02;;;;;;;0.80;0.30;;;9.20;99.90;;;;;;5112357;28;20844;-55
2023/03/26 07:29:35;;;;;;;0.60;0.30;;;9.20;99.90;;;;;;5113624;28;20417;-56
2023/03/26 07:32:13;;;;;;;1.00;0.40;;;9.20;99.90;;;;;;5113401;28;20855;-56
2023/03/26 07:34:50;;;;;;;0.75;0.30;;;9.20;99.90;;;;;;5112880;28;20420;-56
2023/03/26 07:37:32;;;;;;;1.50;0.30;;;9.10;99.90;;;;;;5113267;28;20496;-57
2023/03/26 07:40:04;;;;;;;0.63;0.30;;;9.00;99.90;;;;;;5113526;28;20711;-56
2023/03/26 07:42:46;;;;;;;1.80;0.40;;;9.10;99.90;;;;;;5114659;28;20432;-55
2023/03/26 07:45:22;;;;;;;1.40;0.40;;;9.10;99.90;;;;;;5108269;28;20408;-56
2023/03/26 07:47:52;;;;;;;1.55;0.40;;;9.00;99.90;;;;;;5114291;28;20472;-56
2023/03/26 07:50:22;;;;;;;1.90;0.40;;;9.00;99.90;;;;;;5114112;28;20465;-56
2023/03/26 07:52:49;;;;;;;1.40;0.40;;;9.00;99.90;;;;;;5114009;28;20420;-57
2023/03/26 07:55:18;;;;;;;0.80;0.40;;;9.00;99.90;;;;;;5106414;28;20489;-58
2023/03/26 07:57:55;;;;;;;1.80;0.30;;;8.90;99.90;;;;;;5097702;28;20440;-57
2023/03/26 08:00:28;;;;;;;1.50;0.40;;;8.90;42.50;;;;;;5103514;28;20436;-57
2023/03/26 08:03:16;;;;;;;0.68;0.30;;;8.90;41.00;;;;;;5102549;28;20429;-56
2023/03/26 08:05:50;;;;;;;0.82;0.40;;;8.90;48.20;;;;;;5096493;28;20424;-55
2023/03/26 08:08:22;;;;;;;1.90;0.40;;;8.80;57.70;;;;;;5104052;28;20439;-54
2023/03/26 08:11:06;;;;;;;1.60;0.50;;;8.80;89.60;;;;;;5099025;28;20537;-56
2023/03/26 08:13:43;;;;;;;1.20;0.40;;;8.80;87.60;;;;;;5101432;28;20425;-56
2023/03/26 08:16:15;;;;;;;2.30;0.40;;;8.70;92.70;;;;;;5104289;28;20717;-55
2023/03/26 08:18:56;;;;;;;0.80;0.40;;;8.70;99.90;;;;;;5094790;28;20831;-56
2023/03/26 08:21:28;;;;;;;1.90;0.40;;;8.60;99.90;;;;;;5110283;28;20436;-57
2023/03/26 08:24:02;;;;;;;3.13;0.50;;;8.50;99.90;;;;;;5116921;28;20423;-57
2023/03/26 08:26:40;;;;;;;1.70;0.40;;;8.50;99.90;;;;;;5104489;28;20430;-56
2023/03/26 08:29:20;;;;;;;2.47;0.38;;;8.50;99.90;;;;;;5098050;28;20429;-57
2023/03/26 08:31:48;;;;;;;0.60;0.40;;;8.50;99.90;;;;;;5096135;28;20418;-56
2023/03/26 08:34:17;;;;;;;2.45;0.50;;;8.50;99.90;;;;;;5103921;28;20428;-57
2023/03/26 08:36:44;;;;;;;0.80;0.30;;;8.50;99.90;;;;;;5101965;28;20438;-52
2023/03/26 08:39:13;;;;;;;1.20;0.40;;;8.50;99.90;;;;;;5103037;28;20424;-54
2023/03/26 08:42:08;;;;;;;1.33;0.40;;;8.50;99.90;;;;;;5102390;28;20893;-55
2023/03/26 08:45:05;;;;;;;1.90;0.40;;;8.60;99.90;;;;;;5093799;28;20422;-55
2023/03/26 08:48:08;;;;;;;1.50;0.40;;;8.80;99.90;;;;;;5095469;28;20434;-58
2023/03/26 08:51:09;;;;;;;1.85;0.40;;;8.80;99.90;;;;;;5094683;28;20434;-56
2023/03/26 08:54:12;;;;;;;1.13;0.40;;;8.90;99.90;;;;;;5101215;28;20425;-57
2023/03/26 08:56:51;;;;;;;1.02;0.40;;;9.00;99.90;;;;;;5116748;28;20427;-58
2023/03/26 09:00:00;;;;;;;1.95;0.40;;;9.10;99.90;;;;;;5116400;28;20696;-58
2023/03/26 09:03:02;;;;;;;2.60;0.50;;;9.20;99.90;;;;;;5114667;28;20712;-58
2023/03/26 09:06:17;;;;;;;2.97;0.40;;;9.40;99.90;;;;;;5115087;28;20758;-56
2023/03/26 09:09:22;;;;;;;1.83;0.50;;;9.50;99.90;;;;;;5107919;28;20421;-56
2023/03/26 09:12:20;;;;;;;1.13;0.40;;;9.70;99.90;;;;;;5108139;28;20428;-55
2023/03/26 09:15:21;;;;;;;1.40;0.40;;;9.70;99.90;;;;;;5114513;28;20420;-58
2023/03/26 09:18:09;;;;;;;1.60;0.40;;;10.00;99.90;;;;;;5110890;28;20481;-59
2023/03/26 09:21:00;;;;;;;0.88;0.40;;;10.00;99.90;;;;;;5116026;28;20412;-57
2023/03/26 09:24:04;;;;;;;1.70;0.50;;;10.10;99.90;;;;;;5112925;28;20413;-59
2023/03/26 09:26:45;;;;;;;1.07;0.30;;;10.40;99.90;;;;;;5095728;28;20425;-58
2023/03/26 09:29:52;;;;;;;0.90;0.30;;;10.30;99.90;;;;;;5103718;28;20859;-58
2023/03/26 09:32:48;;;;;;;0.73;0.30;;;10.40;99.90;;;;;;5110361;28;20497;-58
2023/03/26 09:35:50;;;;;;;1.20;0.30;;;10.70;99.90;;;;;;5098899;28;20433;-58
2023/03/26 09:38:37;;;;;;;0.70;0.30;;;10.70;99.90;;;;;;5101164;28;20421;-59
2023/03/26 09:41:13;;;;;;;0.80;0.30;;;11.00;99.90;;;;;;5100155;28;20437;-59
2023/03/26 09:44:32;;;;;;;4.27;0.30;;;11.30;99.90;;;;;;5096198;28;20414;-59
2023/03/26 09:47:40;;;;;;;0.73;0.30;;;11.50;99.90;;;;;;5095029;28;20442;-59
2023/03/26 09:50:37;;;;;;;0.70;0.28;;;12.10;99.90;;;;;;5080718;28;20421;-58
2023/03/26 09:53:21;;;;;;;0.90;0.20;;;12.30;99.90;;;;;;5054407;28;20485;-57
2023/03/26 09:56:03;;;;;;;0.50;0.20;;;12.50;99.90;;;;;;5066080;28;20504;-57
2023/03/26 09:59:05;;;;;;;0.90;0.30;;;12.30;99.90;;;;;;5061934;28;20446;-58
2023/03/26 10:01:41;;;;;;;0.70;0.30;;;12.60;99.90;;;;;;5040507;28;20840;-55
2023/03/26 10:04:46;;;;;;;0.90;0.30;;;12.90;99.90;;;;;;5072536;28;20428;-52
2023/03/26 10:07:33;;;;;;;0.50;0.20;;;12.90;99.90;;;;;;5051731;28;20439;-58
2023/03/26 10:10:04;;;;;;;0.50;0.20;;;12.90;99.90;;;;;;5072231;28;20423;-58
2023/03/26 10:12:37;;;;;;;0.50;0.30;;;12.90;99.90;;;;;;5073799;28;20790;-57
2023/03/26 10:15:21;;;;;;;0.50;0.25;;;12.80;99.90;;;;;;5073264;28;20816;-57
2023/03/26 10:18:00;;;;;;;0.50;0.20;;;12.90;99.90;;;;;;5070828;28;20846;-57
2023/03/26 10:20:48;;;;;;;0.50;0.20;;;13.30;99.90;;;;;;5073464;28;20430;-60
2023/03/26 10:23:26;;;;;;;0.60;0.20;;;13.30;99.90;;;;;;5061115;28;20441;-58
2023/03/26 10:26:04;;;;;;;1.33;0.30;;;13.20;99.90;;;;;;5072249;28;20434;-59
2023/03/26 10:28:55;;;;;;;0.70;0.22;;;13.20;99.90;;;;;;5072103;28;20743;-59
2023/03/26 10:31:45;;;;;;;0.73;0.20;;;13.40;99.90;;;;;;5065920;28;20461;-58
2023/03/26 10:34:25;;;;;;;0.90;0.40;;;13.40;99.90;;;;;;5063743;28;20474;-57
2023/03/26 10:36:59;;;;;;;0.45;0.20;;;13.60;99.90;;;;;;5064161;28;20443;-59
2023/03/26 10:39:44;;;;;;;0.43;0.20;;;13.50;99.90;;;;;;5067896;28;20407;-56
2023/03/26 10:42:31;;;;;;;0.60;0.20;;;13.30;99.90;;;;;;5055513;28;20574;-58
2023/03/26 10:45:14;;;;;;;0.45;0.20;;;13.40;99.90;;;;;;5052433;28;20482;-59
2023/03/26 10:48:11;;;;;;;0.50;0.20;;;13.80;99.90;;;;;;5072593;28;20411;-58
2023/03/26 10:50:52;;;;;;;0.65;0.20;;;14.10;99.90;;;;;;5069023;28;20863;-58
2023/03/26 10:53:30;;;;;;;0.80;0.20;;;14.20;99.90;;;;;;5070323;28;20503;-58
2023/03/26 10:56:02;;;;;;;0.40;0.20;;;14.40;99.90;;;;;;5070115;28;20431;-58
2023/03/26 10:58:30;;;;;;;0.50;0.20;;;14.40;99.90;;;;;;5062721;28;20421;-57
2023/03/26 11:01:01;;;;;;;1.10;0.20;;;15.10;99.90;;;;;;5060815;28;20440;-54
2023/03/26 11:03:50;;;;;;;0.90;0.30;;;15.30;99.90;;;;;;5054950;28;20433;-58
2023/03/26 11:06:30;;;;;;;1.10;0.20;;;15.30;99.90;;;;;;5064657;28;20730;-59
2023/03/26 11:09:07;;;;;;;0.40;0.20;;;15.50;99.90;;;;;;5071042;28;20481;-61
2023/03/26 11:11:43;;;;;;;0.50;0.20;;;15.60;99.90;;;;;;5054565;28;20978;-59
2023/03/26 11:14:16;;;;;;;0.50;0.20;;;15.80;99.90;;;;;;5052101;28;20699;-56
2023/03/26 11:16:54;;;;;;;0.50;0.20;;;16.10;99.90;;;;;;5070922;28;20525;-57
2023/03/26 11:19:29;;;;;;;0.50;0.20;;;16.20;99.90;;;;;;5072388;28;20480;-56
2023/03/26 11:22:03;;;;;;;0.30;0.17;;;15.90;99.90;;;;;;5054557;28;20503;-58
2023/03/26 11:24:54;;;;;;;0.80;0.20;;;15.60;99.90;;;;;;5064413;28;20416;-59
2023/03/26 11:27:31;;;;;;;0.68;0.20;;;15.60;99.90;;;;;;5053043;28;20429;-58
2023/03/26 11:30:09;;;;;;;1.70;0.40;;;15.70;99.90;;;;;;5055206;28;20439;-58
2023/03/26 11:32:42;;;;;;;0.55;0.20;;;16.00;99.90;;;;;;5066091;28;20601;-59
2023/03/26 11:35:19;;;;;;;0.50;0.20;;;16.00;99.90;;;;;;5076296;28;20880;-59
2023/03/26 11:37:52;;;;;;;0.40;0.10;;;16.20;99.90;;;;;;5074849;28;20465;-59
2023/03/26 11:40:23;;;;;;;0.30;0.20;;;16.20;99.90;;;;;;5071868;28;20870;-58
2023/03/26 11:42:55;;;;;;;0.50;0.20;;;16.20;99.90;;;;;;5059858;28;20440;-59
2023/03/26 11:45:25;;;;;;;0.57;0.20;;;16.30;99.90;;;;;;5068274;28;20434;-59
2023/03/26 11:47:56;;;;;;;0.50;0.20;;;16.60;99.90;;;;;;5057016;28;20409;-59
2023/03/26 11:50:26;;;;;;;0.40;0.20;;;16.80;99.90;;;;;;5056278;28;20457;-59
2023/03/26 11:52:59;;;;;;;0.50;0.20;;;16.40;99.90;;;;;;5093761;28;20794;-59
2023/03/26 11:55:26;;;;;;;0.50;0.20;;;16.60;99.90;;;;;;5117625;28;20754;-59
2023/03/26 11:57:57;;;;;;;0.70;0.20;;;16.90;99.90;;;;;;5116634;28;20419;-59
2023/03/26 12:00:26;;;;;;;0.40;0.20;;;16.60;99.90;;;;;;5118286;28;20423;-60
2023/03/26 12:02:56;;;;;;;1.40;0.20;;;17.00;99.90;;;;;;5118496;28;20491;-60
2023/03/26 12:05:28;;;;;;;0.40;0.20;;;17.30;99.90;;;;;;5117307;28;20505;-60
2023/03/26 12:07:58;;;;;;;0.50;0.20;;;17.60;99.90;;;;;;5117235;28;20419;-60
2023/03/26 12:10:28;;;;;;;0.50;0.17;;;17.60;98.60;;;;;;5116001;28;20430;-60
2023/03/26 12:12:59;;;;;;;0.38;0.20;;;17.80;98.90;;;;;;5102265;28;20429;-60
2023/03/26 12:15:27;;;;;;;0.30;0.10;;;17.40;96.00;;;;;;5096790;28;20471;-60
2023/03/26 12:17:56;;;;;;;0.40;0.20;;;16.70;96.10;;;;;;5095599;28;20471;-60
2023/03/26 12:20:37;;;;;;;0.60;0.20;;;16.60;96.80;;;;;;5096268;28;20825;-59
2023/03/26 12:23:07;;;;;;;0.40;0.20;;;16.80;96.80;;;;;;5095526;28;20457;-61
2023/03/26 12:25:37;;;;;;;0.40;0.20;;;16.70;98.30;;;;;;5114526;28;20420;-60
2023/03/26 12:28:16;;;;;;;0.50;0.20;;;16.60;95.50;;;;;;5116969;28;20490;-60
2023/03/26 12:30:53;;;;;;;0.50;0.20;;;16.40;97.40;;;;;;5116626;28;20865;-60
2023/03/26 12:33:25;;;;;;;0.43;0.20;;;16.50;97.00;;;;;;5116649;28;20506;-60
2023/03/26 12:35:54;;;;;;;0.60;0.20;;;17.00;97.80;;;;;;5115955;28;20550;-61
2023/03/26 12:38:31;;;;;;;0.40;0.20;;;17.10;92.40;;;;;;5115712;28;20420;-60
2023/03/26 12:41:08;;;;;;;0.60;0.20;;;16.00;92.70;;;;;;5116157;28;20430;-59
2023/03/26 12:43:42;;;;;;;0.50;0.20;;;15.90;95.90;;;;;;5114710;28;20717;-60
2023/03/26 12:46:29;;;;;;;0.60;0.20;;;15.90;96.40;;;;;;5109524;28;20437;-59
2023/03/26 12:48:59;;;;;;;0.90;0.20;;;15.40;99.40;;;;;;5108718;28;20412;-60
2023/03/26 12:51:39;;;;;;;1.00;0.20;;;15.80;99.90;;;;;;5116650;28;20481;-60
2023/03/26 12:54:27;;;;;;;0.50;0.20;;;15.80;99.90;;;;;;5115166;28;20444;-60
2023/03/26 12:57:07;;;;;;;0.40;0.20;;;16.30;99.90;;;;;;5115310;28;20427;-60
2023/03/26 12:59:49;;;;;;;0.70;0.20;;;16.70;99.90;;;;;;5113575;28;20969;-60
2023/03/26 13:02:57;;;;;;;0.50;0.20;;;16.20;99.90;;;;;;5113111;28;20428;-60
2023/03/26 13:05:43;;;;;;;0.70;0.20;;;16.10;99.90;;;;;;5115265;28;20887;-60
2023/03/26 13:08:31;;;;;;;0.40;0.20;;;16.60;99.90;;;;;;5115056;28;20893;-61
2023/03/26 13:11:05;;;;;;;0.50;0.20;;;17.20;99.90;;;;;;5104781;28;20428;-59
2023/03/26 13:14:07;;;;;;;0.77;0.20;;;17.50;99.90;;;;;;5115992;28;20470;-60
2023/03/26 13:16:40;;;;;;;0.60;0.20;;;17.20;99.80;;;;;;5115208;28;20432;-59
2023/03/26 13:19:13;;;;;;;0.50;0.20;;;17.10;95.10;;;;;;5116325;28;20441;-59
2023/03/26 13:21:56;;;;;;;0.60;0.20;;;16.50;93.60;;;;;;5115686;28;20427;-59
2023/03/26 13:24:34;;;;;;;0.68;0.10;;;16.20;92.50;;;;;;5103177;28;20438;-60
2023/03/26 13:27:16;;;;;;;0.30;0.10;;;16.20;93.90;;;;;;5094098;28;20775;-59